Terminal Aerodrome Forecast
Issued by NWS Kansas City/Pleasant Hill, MO

Home | Current Version | Previous Version | Text Only | Print | Product List | Glossary On
Versions: 1 2 3 4 5 6 7 8 9 10 11 12 13 14 15 16 17 18 19 20 21 22
000
FTUS43 KEAX 020200 AAB
TAFMCI
TAF AMD
KMCI 020208Z 0202/0224 15006KT 3SM -TSRA BR SCT025CB OVC040
      TEMPO 0202/0203 VRB25G45KT 1/2SM +TSRAGR FG BKN015CB
     FM020500 15006KT 5SM BR SCT015 BKN025
     FM021400 18010KT P6SM VCTS SCT025CB OVC035CB
      TEMPO 0218/0222 2SM TSRA SCT020CB OVC035=

USA.gov is the U.S. government's official web portal to all federal, state and local government web resources and services.